ADDS METAR Data INFO
IDs: Format: Raw Decoded Include TAF

Data at: 2027 UTC 16 Dec 2017

KSYN 162015Z AUTO 00000KT 10SM OVC011 00/M03 A2989 RMK AO2 T10031028
KSYN 161955Z AUTO 08003KT 10SM OVC011 00/M03 A2989 RMK AO2 T10011028
KSYN 161935Z AUTO 09005KT 10SM OVC009 00/M03 A2988 RMK AO2 T10041030
KSYN 161915Z AUTO 09005KT 10SM OVC009 00/M03 A2987 RMK AO2 T10021029
KSYN 161855Z AUTO 09006KT 10SM OVC009 00/M03 A2986 RMK AO2 T10011028
KSYN 161835Z AUTO 03005KT 10SM OVC011 00/M03 A2986 RMK AO2 T10011027
KSYN 161815Z AUTO 03006KT 10SM OVC011 00/M03 A2986 RMK AO2 T10021027
KSYN 161755Z AUTO 07006KT 10SM OVC009 00/M03 A2986 RMK AO2 T00001026 10000 21035
KSYN 161736Z AUTO 07003KT 10SM OVC009 00/M03 A2985 RMK AO2 T10021029
KSYN 161715Z AUTO 10005KT 10SM OVC007 00/M03 A2984 RMK AO2 T10031030
KSYN 161655Z AUTO 08004KT 10SM OVC007 00/M03 A2983 RMK AO2 T10051029
KSYN 161635Z AUTO 08007KT 7SM OVC007 M01/M03 A2983 RMK AO2 T10101030
KSYN 161615Z AUTO 09006KT 7SM OVC005 M01/M03 A2983 RMK AO2 T10111031
KSYN 161555Z AUTO 08007KT 5SM BR OVC005 M01/M03 A2981 RMK AO2 T10141031
KSYN 161535Z AUTO 06008KT 5SM BR OVC005 M02/M03 A2980 RMK AO2 T10201035
KSYN 161515Z AUTO 06006KT 7SM BKN005 M02/M04 A2979 RMK AO2 T10221037
KSYN 161455Z AUTO 08006KT 7SM SCT005 M02/M04 A2978 RMK AO2 T10251038
KSYN 161435Z AUTO 06006KT 7SM CLR M03/M04 A2977 RMK AO2 T10281041
KSYN 161415Z AUTO 06007KT 5SM BR CLR M03/M05 A2976 RMK AO2 T10351046
KSYN 161355Z AUTO 06007KT 7SM SCT100 M03/M04 A2975 RMK AO2 T10311044
KSYN 161335Z AUTO 05006KT 7SM SCT100 M03/M04 A2974 RMK AO2 T10281043
KSYN 161315Z AUTO 07008KT 10SM BKN100 M02/M03 A2972 RMK AO2 T10181033
KSYN 161255Z AUTO 06003KT 10SM OVC100 M02/M03 A2973 RMK AO2 T10201032
KSYN 161235Z AUTO 06004KT 10SM BKN100 M03/M04 A2970 RMK AO2 T10271040
KSYN 161215Z AUTO 06003KT 10SM SCT100 M02/M04 A2970 RMK AO2 T10251039
KSYN 161155Z AUTO 09003KT 10SM CLR M02/M03 A2970 RMK AO2 T10181033 10004 21032
KSYN 161135Z AUTO 08005KT 10SM CLR M03/M04 A2968 RMK AO2 T10281039
KSYN 161115Z AUTO 07003KT 10SM CLR M03/M04 A2967 RMK AO2 T10301043
KSYN 161055Z AUTO 07006KT 10SM SCT100 M02/M04 A2966 RMK AO2 T10241040
KSYN 161035Z AUTO 06005KT 10SM BKN100 M02/M04 A2966 RMK AO2 T10201036
KSYN 161015Z AUTO 06006KT 10SM BKN100 M02/M03 A2966 RMK AO2 T10171033
KSYN 160955Z AUTO 03003KT 10SM CLR M01/M03 A2964 RMK AO2 T10061032
KSYN 160935Z AUTO 00000KT 10SM SCT100 00/M03 A2964 RMK AO2 T10011027
KSYN 160915Z AUTO 00000KT 10SM BKN100 00/M02 A2965 RMK AO2 T00001022
KSYN 160855Z AUTO 08003KT 10SM SCT050 SCT100 00/M02 A2964 RMK AO2 T10021023
KSYN 160835Z AUTO 08003KT 10SM SCT050 BKN100 00/M02 A2965 RMK AO2 T00001024
KSYN 160815Z AUTO 00000KT 10SM OVC110 00/M02 A2964 RMK AO2 T00001023
KSYN 160755Z AUTO 11003KT 10SM SCT095 OVC110 M01/M02 A2964 RMK AO2 T10061023
KSYN 160735Z AUTO 05004KT 10SM OVC100 M01/M03 A2965 RMK AO2 T10061026
KSYN 160715Z AUTO 00000KT 10SM OVC100 00/M02 A2964 RMK AO2 T10021025
KSYN 160655Z AUTO 00000KT 10SM BKN110 00/M02 A2964 RMK AO2 T00011022
KSYN 160635Z AUTO 00000KT 10SM OVC100 00/M02 A2963 RMK AO2 T00031021
KSYN 160615Z AUTO 11003KT 10SM BKN100 BKN120 00/M02 A2963 RMK AO2 T00001022
KSYN 160555Z AUTO 00000KT 10SM SCT120 00/M02 A2964 RMK AO2 T00001022 10002 21010 400021045
KSYN 160535Z AUTO 00000KT 10SM SCT080 SCT090 00/M02 A2965 RMK AO2 T00011021
KSYN 160515Z AUTO 00000KT 10SM OVC080 00/M02 A2966 RMK AO2 T00011020
KSYN 160455Z AUTO 14003KT 10SM SCT070 OVC090 00/M02 A2966 RMK AO2 T00011020
KSYN 160435Z AUTO 12003KT 10SM SCT055 BKN070 OVC100 00/M02 A2967 RMK AO2 T00011020
KSYN 160415Z AUTO 00000KT 10SM SCT055 BKN070 OVC095 00/M02 A2969 RMK AO2 T00011020
KSYN 160355Z AUTO 12003KT 10SM OVC060 00/M02 A2970 RMK AO2 T00011020
KSYN 160335Z AUTO 00000KT 10SM SCT048 OVC055 00/M02 A2971 RMK AO2 T00021020
KSYN 160315Z AUTO 00000KT 10SM SCT035 OVC048 00/M02 A2971 RMK AO2 T00001020
KSYN 160255Z AUTO 00000KT 10SM BKN035 BKN041 OVC055 00/M02 A2972 RMK AO2 T00001020
KSYN 160235Z AUTO 11004KT 10SM SCT048 OVC055 00/M02 A2971 RMK AO2 T00001020
KSYN 160215Z AUTO 10003KT 10SM SCT042 OVC050 00/M02 A2972 RMK AO2 T10011022
KSYN 160155Z AUTO 00000KT 10SM OVC048 00/M02 A2973 RMK AO2 T10021022
KSYN 160135Z AUTO 00000KT 10SM SCT050 OVC080 00/M02 A2973 RMK AO2 T10031023
KSYN 160115Z AUTO 00000KT 10SM SCT041 SCT048 OVC080 M01/M03 A2973 RMK AO2 T10061026
KSYN 160055Z AUTO 00000KT 10SM SCT041 BKN048 OVC080 M01/M03 A2974 RMK AO2 T10071026
KSYN 160035Z AUTO 00000KT 10SM SCT045 SCT055 OVC080 M01/M03 A2974 RMK AO2 T10071027
KSYN 160015Z AUTO 00000KT 10SM SCT036 BKN046 OVC050 M01/M03 A2975 RMK AO2 T10081028
KSYN 152355Z AUTO 00000KT 10SM SCT036 BKN070 OVC090 M01/M03 A2975 RMK AO2 T10111031 11010 21021
KSYN 152335Z AUTO 00000KT 10SM SCT070 SCT075 OVC090 M01/M03 A2975 RMK AO2 T10151035
KSYN 152315Z AUTO 00000KT 10SM SCT020 BKN043 OVC070 M01/M03 A2976 RMK AO2 T10131035
KSYN 152255Z AUTO 09003KT 10SM SCT020 SCT025 OVC041 M01/M03 A2977 RMK AO2 T10121035
KSYN 152235Z AUTO 00000KT 10SM OVC041 M01/M03 A2977 RMK AO2 T10111035
KSYN 152215Z AUTO 00000KT 10SM OVC043 M01/M04 A2977 RMK AO2 T10111037
KSYN 152155Z AUTO 00000KT 10SM SCT019 OVC043 M01/M04 A2977 RMK AO2 T10121037
KSYN 152135Z AUTO 00000KT 10SM SCT017 SCT030 OVC045 M01/M04 A2978 RMK AO2 T10131040
KSYN 152115Z AUTO 00000KT 10SM SCT017 SCT030 OVC045 M01/M04 A2978 RMK AO2 T10151040
KSYN 152055Z AUTO 00000KT 10SM SCT027 OVC047 M02/M04 A2978 RMK AO2 T10161040
KSYN 152036Z AUTO 00000KT 10SM SCT027 BKN036 BKN046 M02/M04 A2978 RMK AO2 T10171041
KSYN 152015Z AUTO 00000KT 10SM BKN011 BKN025 OVC038 M02/M04 A2979 RMK AO2 T10171038
KSYN 151955Z AUTO 00000KT 10SM OVC009 M02/M04 A2980 RMK AO2 T10201037
KSYN 151936Z AUTO 00000KT 4SM BR BKN007 OVC011 M02/M04 A2981 RMK AO2 T10211038
KSYN 151915Z AUTO 00000KT 2 1/2SM BR BKN011 OVC018 M02/M04 A2981 RMK AO2 T10201041
KSYN 151855Z AUTO 00000KT 4SM HZ SCT015 OVC022 M02/M04 A2982 RMK AO2 T10181045
KSYN 151835Z AUTO 24003KT 7SM BKN018 OVC029 M02/M05 A2983 RMK AO2 T10161049
KSYN 151815Z AUTO 24003KT 10SM BKN016 OVC022 M01/M05 A2983 RMK AO2 T10151049
KSYN 151755Z AUTO 24003KT 10SM OVC018 M02/M05 A2985 RMK AO2 T10161050 11016 21038
KSYN 151735Z AUTO 23003KT 10SM OVC018 M02/M05 A2986 RMK AO2 T10201050
KSYN 151715Z AUTO 23004KT 10SM BKN018 OVC029 M02/M05 A2985 RMK AO2 T10201051
KSYN 151655Z AUTO 00000KT 10SM OVC018 M02/M05 A2986 RMK AO2 T10221050
KSYN 151635Z AUTO 00000KT 10SM OVC018 M02/M05 A2987 RMK AO2 T10251050
KSYN 151615Z AUTO 00000KT 10SM SCT012 OVC020 M03/M05 A2987 RMK AO2 T10261052
KSYN 151555Z AUTO 32003KT 10SM BKN012 OVC020 M03/M05 A2987 RMK AO2 T10271052
KSYN 151535Z AUTO 00000KT 10SM BKN014 OVC022 M03/M05 A2987 RMK AO2 T10271048
KSYN 151515Z AUTO 00000KT 10SM SCT011 SCT016 OVC022 M03/M05 A2988 RMK AO2 T10291048
KSYN 151455Z AUTO 00000KT 10SM SCT011 BKN016 OVC024 M03/M05 A2988 RMK AO2 T10301050
KSYN 151435Z AUTO 00000KT 10SM SCT009 OVC014 M03/M05 A2987 RMK AO2 T10321050
KSYN 151415Z AUTO 00000KT 10SM SCT009 OVC014 M03/M05 A2987 RMK AO2 T10351053
KSYN 151355Z AUTO 00000KT 10SM BKN014 OVC019 M03/M05 A2987 RMK AO2 T10351055
KSYN 151335Z AUTO 00000KT 10SM BKN016 OVC020 M04/M06 A2987 RMK AO2 T10361057
KSYN 151315Z AUTO 00000KT 10SM OVC014 M04/M06 A2988 RMK AO2 T10361058
KSYN 151255Z AUTO 00000KT 10SM OVC014 M04/M06 A2988 RMK AO2 T10371060
KSYN 151235Z AUTO 00000KT 10SM OVC012 M04/M06 A2988 RMK AO2 T10371060
KSYN 151215Z AUTO 00000KT 10SM OVC012 M04/M06 A2989 RMK AO2 T10371060
KSYN 151155Z AUTO 00000KT 10SM OVC014 M04/M06 A2989 RMK AO2 T10371060 11037 21045
KSYN 151135Z AUTO 00000KT 10SM OVC014 M04/M06 A2989 RMK AO2 T10371060
KSYN 151115Z AUTO 00000KT 10SM OVC016 M04/M06 A2989 RMK AO2 T10371062
KSYN 151055Z AUTO 24003KT 10SM OVC016 M04/M06 A2990 RMK AO2 T10371065
KSYN 151035Z AUTO 00000KT 10SM OVC018 M04/M06 A2991 RMK AO2 T10381065
KSYN 151015Z AUTO 28003KT 10SM OVC020 M04/M07 A2992 RMK AO2 T10381066
KSYN 150955Z AUTO 25004KT 10SM OVC022 M04/M07 A2992 RMK AO2 T10401066
KSYN 150935Z AUTO 25005KT 10SM BKN024 OVC029 M04/M07 A2993 RMK AO2 T10401068
KSYN 150915Z AUTO 25004KT 10SM BKN033 OVC040 M04/M07 A2993 RMK AO2 T10411071
KSYN 150855Z AUTO 25006KT 7SM -SN SCT033 BKN042 OVC047 M04/M07 A2994 RMK AO2 T10411072
KSYN 150835Z AUTO 27008KT 10SM -SN SCT042 OVC048 M04/M07 A2994 RMK AO2 T10421074